Alcolu, South Carolina
Current Conditions -  °F | °C
As of 10:15 AM on Monday 24 Nov 2014 (Local Time) from KSMS Reporting Station
Overcast Overcast  
Wind Chill: 70°   Ceiling: 800
Heat Index: 70°   Visibility: 10mi
Dew Point: 68°   Wind: 10mph
Humidity: 94%   Direction: 180°S
Pressure: 29.87"   Gusts: NA
Location:  33.75°N, 80.21°W
Report Text: KSMS 241515Z AUTO 18009KT 10SM OVC008 21/20 A2987 RMK AO2
Loading
Personal Weather Stations






























Interactive Weather Map New forecast layout! Learn more

10-Day Weather Forecast

Advertisements
Track Severe Weather on mobile